Flight Track Log - Related Links

Times and Time Zones

All times are in EDT time to prevent confusion due to time zone crossing. See the N79TE flight status page for this flight to view local times or setup timezone preferences in your user account.

Time Position Orientation Groundspeed Altitude Reporting Facility
EDT Latitude Longitude Course Direction KTS MPH feet Rate Location/Type
Thu 12:32:48 PM 30.8003 -100.5075 101° East 167 192 9,400  Level Houston Center
Thu 12:33:50 PM 30.7900 -100.4561 103° East 164 189 11,800 2,226 Climbing Houston Center
Thu 12:34:52 PM 30.7828 -100.4039 99° East 163 188 14,000 2,081 Climbing Houston Center
Thu 12:35:54 PM 30.7708 -100.3497 104° East 166 191 16,100 1,694 Climbing Houston Center
Thu 12:36:56 PM 30.7586 -100.2903 103° East 180 207 17,500 677 Climbing Houston Center
Thu 12:37:58 PM 30.7381 -100.1917 104° East 253 291 17,500  Level Houston Center
Thu 12:38:00 PM 30.5319 -100.2045 101° East  Level Estimated
Thu 12:39:00 PM 30.7200 -100.1033 103° East 274 315 17,500  Level Houston Center
Thu 12:40:02 PM 30.7022 -100.0136 103° East 283 326 17,500  Level Houston Center
Thu 12:41:05 PM 30.6831 -99.9242 104° East 285 328 17,500  Level Houston Center
Thu 12:42:07 PM 30.6647 -99.8342 103° East 285 328 17,500  Level Houston Center
Thu 12:43:09 PM 30.6464 -99.7439 103° East 287 330 17,500  Level Houston Center
Thu 12:44:11 PM 30.6239 -99.6361 104° East 286 329 17,500  Level Houston Center
Thu 12:45:13 PM 30.6044 -99.5464 104° East 287 330 17,500  Level Houston Center
Thu 12:46:15 PM 30.5864 -99.4583 103° East 282 325 17,500  Level Houston Center
Thu 12:47:17 PM 30.5667 -99.3700 105° East 282 325 17,500  Level Houston Center
Thu 12:48:19 PM 30.5483 -99.2808 103° East 283 326 17,500  Level Houston Center
Thu 12:49:22 PM 30.5297 -99.1914 104° East 283 326 17,500  Level Houston Center
Thu 12:50:24 PM 30.5081 -99.0892 104° East 284 327 17,500  Level Houston Center
Thu 12:51:26 PM 30.4883 -99.0006 104° East 282 325 17,500  Level Houston Center
Thu 12:52:28 PM 30.4697 -98.9114 104° East 282 325 17,500  Level Houston Center
Thu 12:53:30 PM 30.4511 -98.8236 104° East 280 322 17,500  Level Houston Center
Thu 12:54:32 PM 30.4306 -98.7333 105° East 284 327 17,500  Level Houston Center
Thu 12:55:34 PM 30.4092 -98.6300 103° East 282 325 17,500 -435 Level Houston Center
Thu 12:56:36 PM 30.4022 -98.5367 95° East 290 334 16,600 -1,161 Descending Houston Center
Thu 12:57:38 PM 30.3958 -98.4408 94° East 295 339 15,100 -1,403 Descending Houston Center
Thu 12:58:40 PM 30.3847 -98.3472 98° East 291 335 13,700 -1,344 Descending Houston Center
Thu 12:59:43 PM 30.3736 -98.2594 98° East 277 319 12,300 -1,296 Descending Houston Center
Thu 01:00:45 PM 30.3656 -98.1731 96° East 270 311 11,000 -1,210 Descending Houston Center
Thu 01:01:47 PM 30.3542 -98.0867 99° East 268 308 9,800 -1,306 Descending Houston Center
Thu 01:02:49 PM 30.3431 -97.9869 97° East 265 305 8,300 -1,452 Descending Houston Center
Thu 01:03:51 PM 30.3347 -97.9067 97° East 257 296 6,800 -1,452 Descending Houston Center
Thu 01:04:53 PM 30.3261 -97.8350 98° East 234 269 5,300 -1,452 Descending Houston Center
Thu 01:05:55 PM 30.3186 -97.7650 97° East 222 255 3,800 -1,210 Descending Houston Center
Thu 01:06:57 PM 30.3233 -97.7042 85° East 205 236 2,800 -528 Descending Houston Center
Thu 01:08:00 PM 30.3075 -97.6642 115° Southeast 170 196 2,700 -384 Descending Houston Center
Thu 01:09:02 PM 30.2578 -97.6583 174° South 158 182 2,000 -677 Descending Houston Center
Thu 01:10:04 PM 30.2203 -97.6567 178° South 151 174 1,300 -677 Descending Houston Center
Thu 01:12:00 PM 30.1945 -97.6699 168° South  Level Estimated

Login

Don't have an account? Register now (free) for customized features, flight alerts, and more!